createdAt,value
2023-03-10T00:04:13.464Z,14.101524
2023-03-10T00:09:15.064Z,14.1461
2023-03-10T00:14:16.512Z,14.29907
2023-03-10T00:19:17.957Z,13.65206
2023-03-10T00:24:19.383Z,14.205508
2023-03-10T00:29:20.989Z,13.506432
2023-03-10T00:34:22.433Z,13.52011
2023-03-10T00:39:24.017Z,13.804324
2023-03-10T00:44:25.505Z,13.328128
2023-03-10T00:49:27.000Z,14.037964
2023-03-10T00:54:28.537Z,13.074894
2023-03-10T00:59:40.429Z,13.186992
2023-03-10T01:04:49.749Z,13.65084
2023-03-10T01:09:51.316Z,13.470676
2023-03-10T01:14:52.915Z,14.11618
2023-03-10T01:19:54.381Z,13.69205
2023-03-10T01:24:55.841Z,12.929252
2023-03-10T01:29:57.341Z,12.52351
2023-03-10T01:34:58.921Z,12.691826
2023-03-10T01:40:00.591Z,12.86173
2023-03-10T01:45:02.144Z,13.016816
2023-03-10T01:50:03.644Z,12.474686
2023-03-10T01:55:05.131Z,13.410048
2023-03-10T02:00:06.608Z,12.607694
2023-03-10T02:05:08.137Z,12.778928
2023-03-10T02:10:09.666Z,12.416432
2023-03-10T02:15:11.126Z,12.966324
2023-03-10T02:20:12.760Z,12.220474
2023-03-10T02:25:14.249Z,12.658444
2023-03-10T02:30:15.821Z,12.69226
2023-03-10T02:35:17.304Z,12.871446
2023-03-10T02:40:18.781Z,13.326732
2023-03-10T02:45:20.351Z,12.85732
2023-03-10T02:50:21.829Z,12.969866
2023-03-10T02:55:23.331Z,13.127422
2023-03-10T03:00:24.799Z,12.787152
2023-03-10T03:05:26.240Z,12.347756
2023-03-10T03:10:27.721Z,12.012712
2023-03-10T03:15:29.229Z,11.793984
2023-03-10T03:20:30.678Z,12.208832
2023-03-10T03:25:32.223Z,12.046866
2023-03-10T03:30:33.704Z,11.799724
2023-03-10T03:35:35.225Z,12.13496
2023-03-10T03:40:36.854Z,11.827528
2023-03-10T03:45:38.434Z,11.948284
2023-03-10T03:50:39.944Z,11.934268
2023-03-10T03:55:41.428Z,11.788802
2023-03-10T04:00:42.927Z,11.878388
2023-03-10T04:05:44.566Z,12.110698
2023-03-10T04:10:46.036Z,11.507234
2023-03-10T04:15:47.685Z,11.009966
2023-03-10T04:20:49.166Z,10.968212
2023-03-10T04:25:50.614Z,11.189858
2023-03-10T04:30:52.333Z,11.785098
2023-03-10T04:35:53.910Z,11.936208
2023-03-10T04:40:55.391Z,12.337636
2023-03-10T04:45:56.936Z,12.379566
2023-03-10T04:50:58.463Z,12.671622
2023-03-10T04:56:00.096Z,12.184842
2023-03-10T05:01:03.616Z,13.049398
2023-03-10T05:06:05.431Z,13.157872
2023-03-10T05:11:06.875Z,13.562136
2023-03-10T05:16:08.417Z,13.447216
2023-03-10T05:21:10.153Z,12.954954
2023-03-10T05:26:11.789Z,14.058904
2023-03-10T05:31:13.346Z,13.7753
2023-03-10T05:36:15.096Z,14.144866
2023-03-10T05:41:16.679Z,14.85709
2023-03-10T05:46:18.262Z,14.05456
2023-03-10T05:51:19.744Z,14.11751
2023-03-10T05:56:21.237Z,15.47798
2023-03-10T06:01:22.801Z,14.805282
2023-03-10T06:06:24.445Z,13.680856
2023-03-10T06:11:25.960Z,15.348308
2023-03-10T06:16:27.657Z,16.402418
2023-03-10T06:21:29.150Z,17.455932
2023-03-10T06:26:30.661Z,16.89886
2023-03-10T06:31:32.196Z,17.807342
2023-03-10T06:36:33.734Z,17.893848
2023-03-10T06:41:35.222Z,17.813788
2023-03-10T06:46:36.683Z,18.116918
2023-03-10T06:51:38.239Z,17.948398
2023-03-10T06:56:39.722Z,17.99562
2023-03-10T07:01:41.264Z,18.495238
2023-03-10T07:06:42.820Z,18.574416
2023-03-10T07:11:44.757Z,19.093018
2023-03-10T07:16:46.359Z,19.89692
2023-03-10T07:21:47.956Z,20.17051
2023-03-10T07:26:49.420Z,20.036768
2023-03-10T07:31:51.198Z,20.310602
2023-03-10T07:36:52.712Z,22.484002
2023-03-10T07:41:54.188Z,21.86839
2023-03-10T07:46:55.808Z,22.58116
2023-03-10T07:51:57.260Z,23.413356
2023-03-10T07:56:58.819Z,22.69106
2023-03-10T08:02:00.337Z,24.694638
2023-03-10T08:07:01.853Z,25.127848
2023-03-10T08:12:03.376Z,24.368208
2023-03-10T08:17:05.014Z,26.114752
2023-03-10T08:22:06.514Z,25.214354
2023-03-10T08:27:08.034Z,24.903624
2023-03-10T08:32:09.720Z,25.564816
2023-03-10T08:37:11.457Z,24.818678
2023-03-10T08:42:12.978Z,27.058912
2023-03-10T08:47:14.737Z,26.61197
2023-03-10T08:52:16.409Z,27.03636
2023-03-10T08:57:17.900Z,27.707934
2023-03-10T09:02:19.471Z,27.285308
2023-03-10T09:07:20.989Z,26.44315
2023-03-10T09:12:22.512Z,27.503154
2023-03-10T09:17:24.031Z,28.78144
2023-03-10T09:22:25.496Z,29.147128
2023-03-10T09:27:27.125Z,28.61965
2023-03-10T09:32:28.933Z,28.434926
2023-03-10T09:37:30.387Z,28.829762
2023-03-10T09:42:38.051Z,28.94452
2023-03-10T09:47:39.965Z,29.679234
2023-03-10T09:52:41.525Z,28.495814
2023-03-10T09:57:43.061Z,30.388804
2023-03-10T10:02:44.769Z,31.0421
2023-03-10T10:07:46.340Z,29.68454
2023-03-10T10:12:47.887Z,30.64991
2023-03-10T10:17:56.397Z,30.34929
2023-03-10T10:23:02.105Z,30.864868
2023-03-10T10:28:03.629Z,31.596286
2023-03-10T10:33:05.114Z,30.436462
2023-03-10T10:38:08.409Z,30.934372
2023-03-10T10:43:09.941Z,29.855572
2023-03-10T10:48:11.859Z,30.55168
2023-03-10T10:53:13.334Z,31.90992
2023-03-10T10:58:14.873Z,30.722048
2023-03-10T11:03:16.359Z,31.196578
2023-03-10T11:08:17.913Z,29.956218
2023-03-10T11:13:19.503Z,30.443314
2023-03-10T11:18:21.058Z,30.98736
2023-03-10T11:23:22.580Z,31.41904
2023-03-10T11:28:24.130Z,31.685234
2023-03-10T11:33:25.596Z,30.951592
2023-03-10T11:38:27.113Z,31.077396
2023-03-10T11:43:28.573Z,32.08824
2023-03-10T11:48:30.224Z,31.912324
2023-03-10T11:53:31.800Z,29.202276
2023-03-10T11:58:33.352Z,31.456572
2023-03-10T12:03:34.951Z,31.385956
2023-03-10T12:08:36.672Z,32.26151
2023-03-10T12:13:38.132Z,31.65697
2023-03-10T12:18:40.420Z,32.125326
2023-03-10T12:23:41.897Z,31.472462
2023-03-10T12:28:43.414Z,32.048956
2023-03-10T12:33:44.953Z,31.5603
2023-03-10T12:38:46.423Z,30.724056
2023-03-10T12:43:48.069Z,32.437848
2023-03-10T12:48:49.576Z,32.07809
2023-03-10T12:53:51.124Z,31.350622
2023-03-10T12:58:52.603Z,31.16127
2023-03-10T13:03:54.280Z,31.560746
2023-03-10T13:08:55.776Z,32.08957
2023-03-10T13:13:57.247Z,30.403582
2023-03-10T13:18:58.796Z,31.46276
2023-03-10T13:24:00.298Z,31.24292
2023-03-10T13:29:01.960Z,32.310932
2023-03-10T13:34:03.537Z,30.954008
2023-03-10T13:39:04.975Z,29.885562
2023-03-10T13:44:06.496Z,30.598022
2023-03-10T13:49:08.088Z,30.032114
2023-03-10T13:54:09.909Z,31.022886
2023-03-10T13:59:11.566Z,30.820048
2023-03-10T14:04:13.100Z,30.00013
2023-03-10T14:09:14.614Z,30.874136
2023-03-10T14:14:16.094Z,30.124374
2023-03-10T14:19:17.608Z,30.50929
2023-03-10T14:24:19.044Z,30.538872
2023-03-10T14:29:20.767Z,30.355234
2023-03-10T14:34:22.373Z,30.820278
2023-03-10T14:39:23.897Z,30.014908
2023-03-10T14:44:25.410Z,28.690036
2023-03-10T14:49:27.068Z,29.24863
2023-03-10T14:54:28.581Z,29.444182
2023-03-10T14:59:30.108Z,29.543498
2023-03-10T15:04:31.762Z,29.540826
2023-03-10T15:09:33.227Z,29.126354
2023-03-10T15:14:34.658Z,28.155488
2023-03-10T15:19:36.188Z,28.125268
2023-03-10T15:24:37.659Z,28.672178
2023-03-10T15:29:39.148Z,28.233826
2023-03-10T15:34:40.684Z,28.735738
2023-03-10T15:39:42.158Z,27.935904
2023-03-10T15:44:43.750Z,27.931264
2023-03-10T15:49:45.207Z,27.621632
2023-03-10T15:54:46.645Z,27.52849
2023-03-10T15:59:48.245Z,27.38263
2023-03-10T16:04:49.759Z,26.4674
2023-03-10T16:09:51.243Z,27.057108
2023-03-10T16:14:53.007Z,26.62474
2023-03-10T16:19:54.617Z,26.567802
2023-03-10T16:24:56.158Z,26.112514
2023-03-10T16:29:57.952Z,25.064004
2023-03-10T16:34:59.503Z,25.015452
2023-03-10T16:40:01.017Z,24.880624
2023-03-10T16:45:02.502Z,24.663022
2023-03-10T16:50:04.032Z,24.938892
2023-03-10T16:55:05.524Z,24.91505
2023-03-10T17:00:07.658Z,24.34016
2023-03-10T17:05:09.224Z,24.847324
2023-03-10T17:10:11.001Z,23.742528
2023-03-10T17:15:12.457Z,23.783128
2023-03-10T17:20:14.081Z,24.183268
2023-03-10T17:25:15.543Z,23.743206
2023-03-10T17:30:17.077Z,22.914728
2023-03-10T17:35:18.825Z,23.236938
2023-03-10T17:40:20.351Z,23.042296
2023-03-10T17:45:21.817Z,23.256356
2023-03-10T17:50:23.326Z,22.307
2023-03-10T17:55:24.823Z,23.071918
2023-03-10T18:00:26.512Z,23.050736
2023-03-10T18:05:28.096Z,22.908608
2023-03-10T18:10:29.588Z,22.580658
2023-03-10T18:15:31.128Z,21.931394
2023-03-10T18:20:32.720Z,21.481874
2023-03-10T18:25:34.200Z,21.33824
2023-03-10T18:30:35.652Z,21.33288
2023-03-10T18:35:37.218Z,20.660928
2023-03-10T18:40:38.762Z,20.627194
2023-03-10T18:45:40.257Z,21.368446
2023-03-10T18:50:41.698Z,20.807018
2023-03-10T18:55:43.417Z,21.069888
2023-03-10T19:00:45.167Z,20.69245
2023-03-10T19:05:46.856Z,21.216426
2023-03-10T19:10:48.322Z,20.973232
2023-03-10T19:15:49.839Z,19.111676
2023-03-10T19:20:51.344Z,20.062374
2023-03-10T19:25:52.955Z,20.13052
2023-03-10T19:30:54.468Z,20.045534
2023-03-10T19:35:56.042Z,20.721258
2023-03-10T19:40:57.627Z,20.412564
2023-03-10T19:45:59.097Z,20.105552
2023-03-10T19:51:00.718Z,20.93464
2023-03-10T19:56:02.212Z,20.356508
2023-03-10T20:01:03.998Z,20.107954
2023-03-10T20:06:05.637Z,20.234436
2023-03-10T20:11:07.143Z,20.05373
2023-03-10T20:16:08.615Z,19.965826
2023-03-10T20:21:10.253Z,19.390802
2023-03-10T20:26:11.682Z,19.665762
2023-03-10T20:31:13.178Z,19.65492
2023-03-10T20:36:14.728Z,19.709904
2023-03-10T20:41:16.221Z,19.92106
2023-03-10T20:46:17.768Z,19.872766
2023-03-10T20:51:19.410Z,19.920626
2023-03-10T20:56:20.957Z,19.448798
2023-03-10T21:01:22.555Z,19.803914
2023-03-10T21:06:24.099Z,19.543948
2023-03-10T21:11:25.656Z,20.239294
2023-03-10T21:16:27.142Z,19.83279
2023-03-10T21:21:28.672Z,19.733922
2023-03-10T21:26:30.287Z,19.323524
2023-03-10T21:31:31.809Z,19.858464
2023-03-10T21:36:33.376Z,19.90878
2023-03-10T21:41:34.880Z,19.514814
2023-03-10T21:46:36.473Z,19.289912
2023-03-10T21:51:37.979Z,19.157134
2023-03-10T21:56:39.423Z,19.414006
2023-03-10T22:01:41.072Z,19.026228
2023-03-10T22:06:42.740Z,18.996036
2023-03-10T22:11:44.158Z,18.85171
2023-03-10T22:16:45.693Z,18.808016
2023-03-10T22:21:47.116Z,18.16627
2023-03-10T22:26:48.647Z,18.85479
2023-03-10T22:31:50.110Z,18.521128
2023-03-10T22:36:51.682Z,18.833174
2023-03-10T22:41:53.119Z,19.091362
2023-03-10T22:46:54.712Z,18.540112
2023-03-10T22:51:56.212Z,18.21508
2023-03-10T22:56:57.733Z,18.251012
2023-03-10T23:01:59.355Z,18.282792
2023-03-10T23:07:00.945Z,18.421826
2023-03-10T23:12:02.515Z,18.073848
2023-03-10T23:17:04.029Z,18.049762
2023-03-10T23:22:05.620Z,18.00543
2023-03-10T23:27:07.060Z,17.986894
2023-03-10T23:32:08.637Z,17.765072
2023-03-10T23:37:10.046Z,17.79403
2023-03-10T23:42:11.536Z,17.615536
2023-03-10T23:47:13.067Z,18.283756
2023-03-10T23:52:14.551Z,18.313758
2023-03-10T23:57:16.104Z,17.93111
